createdAt,value
2022-12-03T00:02:09.988Z,17.02
2022-12-03T00:04:36.354Z,17.38
2022-12-03T00:07:02.683Z,17.42
2022-12-03T00:09:28.911Z,17.48
2022-12-03T00:11:55.137Z,16.98
2022-12-03T00:14:21.377Z,17.20
2022-12-03T00:16:47.611Z,18.17
2022-12-03T00:19:13.897Z,18.13
2022-12-03T00:21:40.174Z,18.80
2022-12-03T00:24:06.701Z,19.50
2022-12-03T00:26:32.956Z,18.08
2022-12-03T00:28:59.191Z,17.48
2022-12-03T00:31:25.785Z,18.40
2022-12-03T00:33:52.270Z,18.30
2022-12-03T00:36:18.737Z,18.33
2022-12-03T00:38:45.057Z,19.63
2022-12-03T00:41:11.951Z,18.58
2022-12-03T00:43:38.414Z,19.15
2022-12-03T00:46:04.812Z,19.23
2022-12-03T00:48:31.098Z,18.45
2022-12-03T00:50:57.348Z,19.02
2022-12-03T00:53:23.573Z,18.13
2022-12-03T00:55:50.648Z,18.95
2022-12-03T00:58:17.509Z,19.23
2022-12-03T01:00:43.925Z,17.83
2022-12-03T01:03:10.203Z,19.13
2022-12-03T01:05:36.526Z,19.17
2022-12-03T01:08:02.908Z,18.52
2022-12-03T01:10:29.277Z,19.33
2022-12-03T01:12:55.604Z,18.20
2022-12-03T01:15:21.905Z,19.60
2022-12-03T01:17:48.173Z,19.33
2022-12-03T01:20:14.455Z,18.65
2022-12-03T01:22:40.687Z,19.80
2022-12-03T01:25:07.473Z,18.70
2022-12-03T01:27:33.755Z,18.80
2022-12-03T01:30:00.038Z,17.17
2022-12-03T01:32:26.430Z,18.60
2022-12-03T01:34:54.178Z,19.73
2022-12-03T01:37:22.042Z,18.90
2022-12-03T01:39:48.408Z,18.88
2022-12-03T01:42:22.231Z,18.45
2022-12-03T01:44:48.869Z,18.73
2022-12-03T01:47:16.639Z,18.55
2022-12-03T01:49:44.361Z,17.92
2022-12-03T01:52:15.014Z,18.38
2022-12-03T01:54:43.009Z,19.83
2022-12-03T01:57:20.282Z,18.52
2022-12-03T01:59:47.069Z,19.13
2022-12-03T02:02:14.814Z,19.25
2022-12-03T02:04:41.220Z,18.85
2022-12-03T02:07:22.398Z,19.63
2022-12-03T02:09:48.733Z,18.70
2022-12-03T02:12:15.930Z,19.83
2022-12-03T02:14:42.154Z,19.90
2022-12-03T02:17:08.530Z,19.58
2022-12-03T02:19:35.552Z,18.98
2022-12-03T02:22:15.436Z,18.27
2022-12-03T02:24:55.628Z,19.10
2022-12-03T02:27:22.447Z,20.02
2022-12-03T02:29:48.689Z,19.80
2022-12-03T02:32:14.988Z,19.50
2022-12-03T02:34:42.782Z,19.40
2022-12-03T02:37:11.462Z,19.55
2022-12-03T02:39:40.016Z,19.88
2022-12-03T02:42:25.396Z,19.40
2022-12-03T02:44:52.311Z,20.02
2022-12-03T02:47:19.188Z,19.23
2022-12-03T02:49:45.494Z,18.10
2022-12-03T02:52:11.902Z,20.55
2022-12-03T02:54:38.229Z,20.15
2022-12-03T02:57:04.605Z,18.95
2022-12-03T02:59:30.861Z,19.15
2022-12-03T03:01:57.441Z,19.48
2022-12-03T03:04:24.792Z,19.98
2022-12-03T03:06:51.409Z,18.65
2022-12-03T03:09:18.237Z,20.25
2022-12-03T03:11:44.509Z,18.95
2022-12-03T03:14:10.777Z,18.67
2022-12-03T03:16:37.159Z,19.50
2022-12-03T03:19:03.414Z,19.73
2022-12-03T03:21:29.712Z,19.83
2022-12-03T03:23:55.999Z,19.83
2022-12-03T03:26:22.293Z,20.88
2022-12-03T03:28:49.976Z,21.00
2022-12-03T03:31:17.697Z,19.60
2022-12-03T03:33:45.391Z,19.42
2022-12-03T03:36:12.445Z,20.02
2022-12-03T03:38:39.049Z,19.48
2022-12-03T03:41:05.850Z,19.83
2022-12-03T03:43:34.729Z,20.35
2022-12-03T03:46:01.583Z,21.75
2022-12-03T03:48:27.935Z,19.92
2022-12-03T03:50:54.263Z,22.08
2022-12-03T03:53:20.838Z,21.15
2022-12-03T03:55:47.316Z,21.83
2022-12-03T03:58:13.631Z,21.35
2022-12-03T04:00:40.019Z,23.23
2022-12-03T04:03:06.293Z,21.02
2022-12-03T04:05:32.825Z,20.70
2022-12-03T04:07:59.257Z,21.27
2022-12-03T04:10:44.314Z,21.00
2022-12-03T04:13:10.605Z,22.25
2022-12-03T04:15:36.914Z,21.33
2022-12-03T04:18:21.588Z,21.20
2022-12-03T04:20:47.907Z,20.35
2022-12-03T04:23:14.201Z,21.48
2022-12-03T04:26:03.187Z,20.02
2022-12-03T04:28:47.740Z,21.20
2022-12-03T04:31:32.489Z,20.95
2022-12-03T04:34:17.293Z,21.48
2022-12-03T04:36:43.611Z,22.20
2022-12-03T04:39:09.923Z,21.60
2022-12-03T04:41:36.232Z,21.05
2022-12-03T04:44:20.898Z,20.27
2022-12-03T04:46:47.170Z,20.38
2022-12-03T04:49:13.428Z,20.50
2022-12-03T04:51:39.738Z,19.92
2022-12-03T04:54:21.072Z,20.58
2022-12-03T04:56:47.400Z,20.67
2022-12-03T04:59:16.546Z,20.30
2022-12-03T05:01:43.229Z,19.70
2022-12-03T05:04:09.641Z,19.77
2022-12-03T05:06:35.936Z,20.33
2022-12-03T05:09:02.281Z,19.05
2022-12-03T05:11:28.561Z,20.35
2022-12-03T05:13:54.838Z,21.52
2022-12-03T05:16:21.170Z,21.33
2022-12-03T05:18:47.570Z,22.58
2022-12-03T05:21:14.032Z,20.48
2022-12-03T05:23:40.269Z,21.83
2022-12-03T05:26:06.607Z,21.38
2022-12-03T05:28:32.851Z,21.10
2022-12-03T05:30:59.207Z,22.27
2022-12-03T05:33:25.634Z,21.73
2022-12-03T05:35:51.921Z,22.00
2022-12-03T05:38:18.263Z,20.02
2022-12-03T05:40:44.599Z,21.65
2022-12-03T05:43:10.887Z,20.95
2022-12-03T05:45:38.371Z,22.15
2022-12-03T05:48:06.170Z,21.17
2022-12-03T05:50:34.013Z,22.80
2022-12-03T05:53:00.320Z,20.48
2022-12-03T05:55:27.239Z,21.30
2022-12-03T05:57:53.574Z,21.55
2022-12-03T06:00:21.481Z,20.40
2022-12-03T06:02:48.153Z,21.15
2022-12-03T06:05:15.362Z,21.27
2022-12-03T06:07:41.876Z,21.30
2022-12-03T06:10:09.754Z,20.88
2022-12-03T06:12:36.037Z,19.58
2022-12-03T06:15:02.407Z,20.98
2022-12-03T06:17:28.677Z,20.08
2022-12-03T06:19:54.942Z,19.63
2022-12-03T06:22:21.243Z,19.17
2022-12-03T06:24:47.580Z,19.63
2022-12-03T06:27:13.912Z,19.05
2022-12-03T06:29:40.258Z,19.80
2022-12-03T06:32:06.570Z,19.80
2022-12-03T06:34:33.122Z,20.88
2022-12-03T06:36:59.337Z,19.88
2022-12-03T06:39:25.587Z,18.83
2022-12-03T06:41:51.821Z,19.77
2022-12-03T06:44:18.045Z,19.38
2022-12-03T06:46:44.368Z,18.52
2022-12-03T06:49:10.700Z,20.35
2022-12-03T06:51:37.075Z,20.20
2022-12-03T06:54:04.065Z,18.85
2022-12-03T06:56:35.877Z,19.25
2022-12-03T06:59:04.279Z,18.50
2022-12-03T07:01:30.662Z,19.95
2022-12-03T07:03:56.986Z,21.65
2022-12-03T07:06:23.280Z,18.90
2022-12-03T07:08:49.533Z,20.27
2022-12-03T07:11:38.551Z,21.17
2022-12-03T07:14:06.911Z,20.20
2022-12-03T07:16:34.217Z,19.77
2022-12-03T07:19:00.651Z,20.58
2022-12-03T07:21:26.875Z,20.50
2022-12-03T07:23:53.145Z,22.10
2022-12-03T07:26:19.458Z,20.80
2022-12-03T07:28:46.635Z,22.48
2022-12-03T07:31:13.154Z,21.08
2022-12-03T07:33:39.481Z,20.55
2022-12-03T07:36:05.893Z,20.02
2022-12-03T07:38:32.137Z,21.10
2022-12-03T07:40:58.339Z,20.92
2022-12-03T07:43:24.619Z,21.70
2022-12-03T07:45:50.934Z,21.73
2022-12-03T07:48:17.230Z,22.35
2022-12-03T07:50:43.556Z,20.13
2022-12-03T07:53:09.779Z,21.63
2022-12-03T07:55:36.043Z,21.50
2022-12-03T07:58:02.289Z,21.83
2022-12-03T08:00:28.584Z,23.00
2022-12-03T08:02:54.911Z,22.48
2022-12-03T08:05:21.177Z,22.17
2022-12-03T08:07:47.497Z,23.48
2022-12-03T08:10:13.905Z,22.60
2022-12-03T08:12:40.393Z,23.23
2022-12-03T08:15:16.842Z,23.13
2022-12-03T08:17:43.607Z,23.10
2022-12-03T08:20:12.909Z,23.42
2022-12-03T08:22:40.478Z,21.60
2022-12-03T08:25:12.870Z,23.98
2022-12-03T08:27:39.110Z,24.48
2022-12-03T08:30:05.835Z,22.77
2022-12-03T08:32:32.114Z,23.40
2022-12-03T08:34:58.423Z,24.48
2022-12-03T08:37:24.680Z,23.77
2022-12-03T08:39:54.329Z,23.25
2022-12-03T08:42:42.735Z,23.63
2022-12-03T08:45:27.959Z,23.58
2022-12-03T08:48:02.480Z,24.38
2022-12-03T08:50:33.386Z,24.10
2022-12-03T08:53:11.198Z,22.15
2022-12-03T08:55:38.257Z,22.58
2022-12-03T08:58:24.302Z,22.92
2022-12-03T09:00:56.790Z,22.83
2022-12-03T09:03:23.144Z,22.65
2022-12-03T09:05:49.354Z,22.98
2022-12-03T09:08:15.717Z,22.27
2022-12-03T09:10:42.049Z,23.15
2022-12-03T09:13:08.373Z,21.90
2022-12-03T09:15:34.691Z,22.90
2022-12-03T09:18:00.974Z,22.83
2022-12-03T09:20:27.190Z,24.15
2022-12-03T09:22:53.479Z,23.77
2022-12-03T09:25:19.712Z,24.13
2022-12-03T09:27:45.979Z,23.23
2022-12-03T09:30:12.355Z,22.08
2022-12-03T09:32:38.641Z,22.55
2022-12-03T09:35:05.322Z,22.38
2022-12-03T09:37:31.722Z,23.75
2022-12-03T09:39:57.999Z,23.27
2022-12-03T09:42:24.945Z,23.67
2022-12-03T09:44:51.501Z,23.42
2022-12-03T09:47:18.474Z,21.73
2022-12-03T09:49:44.809Z,22.73
2022-12-03T09:52:14.258Z,22.70
2022-12-03T09:54:52.249Z,20.77
2022-12-03T09:57:18.727Z,20.95
2022-12-03T09:59:45.221Z,20.42
2022-12-03T10:02:19.551Z,21.05
2022-12-03T10:04:45.834Z,20.23
2022-12-03T10:07:12.086Z,21.50
2022-12-03T10:09:38.361Z,20.88
2022-12-03T10:12:04.786Z,20.33
2022-12-03T10:14:31.164Z,22.80
2022-12-03T10:16:58.179Z,22.05
2022-12-03T10:19:27.416Z,22.20
2022-12-03T10:21:53.863Z,23.38
2022-12-03T10:24:23.308Z,21.90
2022-12-03T10:26:50.786Z,24.67
2022-12-03T10:29:21.347Z,23.42
2022-12-03T10:32:07.866Z,24.70
2022-12-03T10:34:35.510Z,23.67
2022-12-03T10:37:21.461Z,23.50
2022-12-03T10:39:56.013Z,22.13
2022-12-03T10:42:23.421Z,24.92
2022-12-03T10:44:53.730Z,24.92
2022-12-03T10:47:22.555Z,23.88
2022-12-03T10:50:00.980Z,25.15
2022-12-03T10:52:27.281Z,23.60
2022-12-03T10:54:53.902Z,24.38
2022-12-03T10:57:20.463Z,23.70
2022-12-03T10:59:46.716Z,26.65
2022-12-03T11:02:21.102Z,24.80
2022-12-03T11:04:47.414Z,23.92
2022-12-03T11:07:20.932Z,24.88
2022-12-03T11:09:48.206Z,24.67
2022-12-03T11:12:18.778Z,24.50
2022-12-03T11:14:52.069Z,23.48
2022-12-03T11:17:37.374Z,23.70
2022-12-03T11:20:03.827Z,23.23
2022-12-03T11:22:59.352Z,24.02
2022-12-03T11:25:28.599Z,22.65
2022-12-03T11:28:13.006Z,23.67
2022-12-03T11:30:45.336Z,22.05
2022-12-03T11:33:28.591Z,21.23
2022-12-03T11:36:36.513Z,19.80
2022-12-03T11:39:08.056Z,20.15
2022-12-03T11:41:35.008Z,19.88
2022-12-03T11:44:05.663Z,19.98
2022-12-03T11:46:37.911Z,18.60
2022-12-03T11:49:23.032Z,17.83
2022-12-03T11:51:49.457Z,18.42
2022-12-03T11:54:16.650Z,18.17
2022-12-03T11:56:47.464Z,17.55
2022-12-03T11:59:13.806Z,16.80
2022-12-03T12:01:40.752Z,18.00
2022-12-03T12:04:08.113Z,16.80
2022-12-03T12:06:48.714Z,16.40
2022-12-03T12:09:37.901Z,17.27
2022-12-03T12:12:22.809Z,15.38
2022-12-03T12:14:49.097Z,16.00
2022-12-03T12:17:28.676Z,15.98
2022-12-03T12:20:13.642Z,15.95
2022-12-03T12:22:39.990Z,15.68
2022-12-03T12:25:26.240Z,15.60
2022-12-03T12:27:53.822Z,15.77
2022-12-03T12:30:21.568Z,14.43
2022-12-03T12:32:48.916Z,14.82
2022-12-03T12:35:17.111Z,14.23
2022-12-03T12:37:58.158Z,15.63
2022-12-03T12:40:29.492Z,16.45
2022-12-03T12:42:59.561Z,16.35
2022-12-03T12:45:30.075Z,16.48
2022-12-03T12:48:03.082Z,18.55
2022-12-03T12:50:30.526Z,17.52
2022-12-03T12:53:08.431Z,17.20
2022-12-03T12:55:34.791Z,16.42
2022-12-03T12:58:02.655Z,16.80
2022-12-03T13:00:28.982Z,15.98
2022-12-03T13:02:58.356Z,16.38
2022-12-03T13:05:27.598Z,16.30
2022-12-03T13:07:54.459Z,16.42
2022-12-03T13:10:24.877Z,16.45
2022-12-03T13:12:51.166Z,17.85
2022-12-03T13:15:36.379Z,15.48
2022-12-03T13:18:10.565Z,15.93
2022-12-03T13:20:37.301Z,16.27
2022-12-03T13:23:05.684Z,17.75
2022-12-03T13:28:23.474Z,16.52
2022-12-03T13:30:49.757Z,17.50
2022-12-03T13:33:25.938Z,17.77
2022-12-03T13:35:52.977Z,17.25
2022-12-03T13:38:20.278Z,17.63
2022-12-03T13:40:46.656Z,17.15
2022-12-03T13:43:15.330Z,17.80
2022-12-03T13:45:43.832Z,16.65
2022-12-03T13:48:20.050Z,17.15
2022-12-03T13:50:46.401Z,17.30
2022-12-03T13:53:31.194Z,18.02
2022-12-03T13:56:16.439Z,19.73
2022-12-03T13:58:42.653Z,22.67
2022-12-03T14:01:08.950Z,23.02
2022-12-03T14:03:35.310Z,25.13
2022-12-03T14:06:01.578Z,26.75
2022-12-03T14:08:27.818Z,24.80
2022-12-03T14:10:59.907Z,25.75
2022-12-03T14:13:27.038Z,26.30
2022-12-03T14:15:53.314Z,26.38
2022-12-03T14:18:19.601Z,27.00
2022-12-03T14:20:45.939Z,27.40
2022-12-03T14:23:12.278Z,24.55
2022-12-03T14:25:38.507Z,26.98
2022-12-03T14:28:08.487Z,24.17
2022-12-03T14:30:35.211Z,25.00
2022-12-03T14:33:01.563Z,25.33
2022-12-03T14:35:27.862Z,24.65
2022-12-03T14:37:54.072Z,24.42
2022-12-03T14:40:22.002Z,25.15
2022-12-03T14:42:48.537Z,22.95
2022-12-03T14:45:14.912Z,22.80
2022-12-03T14:47:41.160Z,23.25
2022-12-03T14:50:07.952Z,21.60
2022-12-03T14:52:34.530Z,19.73
2022-12-03T14:55:00.746Z,20.95
2022-12-03T14:57:26.970Z,21.52
2022-12-03T14:59:53.419Z,20.83
2022-12-03T15:02:19.822Z,21.42
2022-12-03T15:04:46.129Z,21.88
2022-12-03T15:07:12.544Z,20.13
2022-12-03T15:09:38.779Z,20.40
2022-12-03T15:12:05.279Z,21.48
2022-12-03T15:14:31.573Z,18.70
2022-12-03T15:16:57.925Z,19.20
2022-12-03T15:19:24.206Z,18.67
2022-12-03T15:21:50.493Z,18.05
2022-12-03T15:24:17.046Z,19.25
2022-12-03T15:26:43.269Z,18.52
2022-12-03T15:29:09.570Z,18.15
2022-12-03T15:31:35.934Z,18.90
2022-12-03T15:34:02.309Z,18.00
2022-12-03T15:36:28.663Z,18.63
2022-12-03T15:38:54.951Z,19.75
2022-12-03T15:41:21.585Z,18.35
2022-12-03T15:43:48.462Z,18.58
2022-12-03T15:46:14.843Z,18.45
2022-12-03T15:48:41.115Z,20.13
2022-12-03T15:51:07.401Z,21.67
2022-12-03T15:53:33.736Z,44.72
2022-12-03T15:56:00.031Z,20.95
2022-12-03T15:58:26.330Z,21.50
2022-12-03T16:00:52.587Z,34.95
2022-12-03T16:03:18.886Z,24.90
2022-12-03T16:05:45.178Z,35.10
2022-12-03T16:08:11.549Z,29.27
2022-12-03T16:10:37.805Z,38.53
2022-12-03T16:13:04.078Z,35.67
2022-12-03T16:15:30.482Z,28.35
2022-12-03T16:17:56.789Z,33.08
2022-12-03T16:20:23.081Z,31.63
2022-12-03T16:22:49.380Z,28.88
2022-12-03T16:25:15.641Z,28.70
2022-12-03T16:27:41.866Z,29.98
2022-12-03T16:30:08.520Z,27.23
2022-12-03T16:32:34.844Z,25.50
2022-12-03T16:35:01.210Z,26.60
2022-12-03T16:37:27.440Z,25.23
2022-12-03T16:39:53.927Z,24.73
2022-12-03T16:42:20.347Z,26.48
2022-12-03T16:45:04.671Z,27.10
2022-12-03T16:47:34.142Z,27.90
2022-12-03T16:50:01.522Z,30.17
2022-12-03T16:52:27.873Z,28.48
2022-12-03T16:54:54.230Z,27.23
2022-12-03T16:57:20.480Z,26.50
2022-12-03T16:59:46.715Z,26.35
2022-12-03T17:02:13.467Z,27.77
2022-12-03T17:04:39.978Z,28.13
2022-12-03T17:07:06.238Z,25.65
2022-12-03T17:09:32.534Z,25.55
2022-12-03T17:11:58.838Z,25.40
2022-12-03T17:14:29.860Z,25.73
2022-12-03T17:16:59.255Z,25.85
2022-12-03T17:19:25.499Z,26.35
2022-12-03T17:21:52.998Z,26.67
2022-12-03T17:24:19.319Z,28.58
2022-12-03T17:26:46.247Z,28.33
2022-12-03T17:29:12.517Z,30.08
2022-12-03T17:31:42.303Z,27.40
2022-12-03T17:34:09.103Z,29.52
2022-12-03T17:36:35.338Z,29.52
2022-12-03T17:39:01.619Z,29.15
2022-12-03T17:41:27.868Z,29.65
2022-12-03T17:43:54.154Z,29.35
2022-12-03T17:46:20.463Z,28.85
2022-12-03T17:48:46.770Z,29.73
2022-12-03T17:51:13.074Z,30.55
2022-12-03T17:53:39.374Z,30.10
2022-12-03T17:56:05.762Z,28.13
2022-12-03T17:58:32.118Z,28.05
2022-12-03T18:01:02.526Z,30.30
2022-12-03T18:03:29.525Z,31.10
2022-12-03T18:05:55.825Z,31.08
2022-12-03T18:08:22.154Z,32.58
2022-12-03T18:10:48.473Z,30.58
2022-12-03T18:13:14.700Z,28.30
2022-12-03T18:15:41.000Z,29.75
2022-12-03T18:18:07.354Z,29.70
2022-12-03T18:20:33.655Z,26.08
2022-12-03T18:22:59.878Z,29.50
2022-12-03T18:25:26.995Z,27.05
2022-12-03T18:27:53.296Z,26.20
2022-12-03T18:30:19.671Z,26.40
2022-12-03T18:32:45.906Z,27.40
2022-12-03T18:35:12.271Z,28.15
2022-12-03T18:37:38.853Z,28.60
2022-12-03T18:40:12.722Z,27.45
2022-12-03T18:42:39.544Z,26.73
2022-12-03T18:45:06.814Z,25.92
2022-12-03T18:47:33.133Z,25.40
2022-12-03T18:49:59.517Z,25.77
2022-12-03T18:52:25.952Z,28.20
2022-12-03T18:54:52.656Z,25.80
2022-12-03T18:57:18.891Z,24.65
2022-12-03T18:59:45.135Z,27.10
2022-12-03T19:05:07.687Z,25.27
2022-12-03T19:07:34.141Z,25.90
2022-12-03T19:10:00.499Z,27.92
2022-12-03T19:12:26.710Z,25.70
2022-12-03T19:14:52.988Z,26.52
2022-12-03T19:17:19.330Z,24.73
2022-12-03T19:19:46.357Z,25.83
2022-12-03T19:22:12.617Z,25.10
2022-12-03T19:24:38.833Z,46.35
2022-12-03T19:27:05.062Z,46.88
2022-12-03T19:29:31.284Z,41.00
2022-12-03T19:31:57.656Z,57.85
2022-12-03T19:34:24.006Z,35.75
2022-12-03T19:36:50.304Z,27.13
2022-12-03T19:39:16.526Z,26.65
2022-12-03T19:41:44.523Z,28.58
2022-12-03T19:44:12.567Z,26.88
2022-12-03T19:46:38.878Z,27.70
2022-12-03T19:49:06.139Z,28.42
2022-12-03T19:51:35.354Z,27.50
2022-12-03T19:54:06.117Z,27.02
2022-12-03T19:56:32.341Z,27.25
2022-12-03T19:58:58.653Z,28.17
2022-12-03T20:01:26.616Z,27.85
2022-12-03T20:03:54.278Z,27.00
2022-12-03T20:06:23.032Z,26.52
2022-12-03T20:08:49.960Z,27.92
2022-12-03T20:11:17.598Z,28.42
2022-12-03T20:13:44.181Z,27.75
2022-12-03T20:16:12.577Z,27.92
2022-12-03T20:18:40.397Z,27.17
2022-12-03T20:21:07.098Z,28.33
2022-12-03T20:23:33.658Z,27.13
2022-12-03T20:25:59.906Z,27.40
2022-12-03T20:28:27.697Z,31.85
2022-12-03T20:30:57.853Z,37.72
2022-12-03T20:33:24.135Z,38.20
2022-12-03T20:35:53.923Z,59.30
2022-12-03T20:38:23.942Z,32.17
2022-12-03T20:40:50.209Z,33.03
2022-12-03T20:43:16.604Z,33.78
2022-12-03T20:45:43.231Z,29.65
2022-12-03T20:48:09.910Z,29.17
2022-12-03T20:50:39.048Z,30.33
2022-12-03T20:53:23.837Z,29.20
2022-12-03T20:55:57.397Z,27.98
2022-12-03T20:58:23.743Z,28.02
2022-12-03T21:00:50.411Z,26.77
2022-12-03T21:03:16.812Z,26.02
2022-12-03T21:05:45.848Z,27.02
2022-12-03T21:08:12.300Z,26.70
2022-12-03T21:10:47.358Z,26.67
2022-12-03T21:13:14.291Z,27.58
2022-12-03T21:15:41.040Z,27.25
2022-12-03T21:18:08.798Z,25.58
2022-12-03T21:20:41.021Z,28.60
2022-12-03T21:23:07.516Z,27.38
2022-12-03T21:25:34.750Z,27.02
2022-12-03T21:28:01.613Z,27.10
2022-12-03T21:30:27.994Z,26.52
2022-12-03T21:32:54.275Z,27.20
2022-12-03T21:35:20.568Z,27.80
2022-12-03T21:37:46.896Z,26.27
2022-12-03T21:40:13.197Z,29.35
2022-12-03T21:42:39.485Z,28.23
2022-12-03T21:45:06.109Z,28.08
2022-12-03T21:47:37.238Z,27.00
2022-12-03T21:50:04.472Z,47.05
2022-12-03T21:52:30.693Z,54.13
2022-12-03T21:54:56.993Z,148.07
2022-12-03T21:57:23.246Z,109.78
2022-12-03T21:59:49.498Z,72.53
2022-12-03T22:02:15.917Z,40.70
2022-12-03T22:04:42.391Z,29.10
2022-12-03T22:07:08.637Z,28.00
2022-12-03T22:09:34.891Z,29.02
2022-12-03T22:12:01.209Z,29.10
2022-12-03T22:14:28.002Z,29.45
2022-12-03T22:16:54.294Z,28.00
2022-12-03T22:19:24.123Z,29.98
2022-12-03T22:21:50.406Z,29.10
2022-12-03T22:24:18.242Z,34.17
2022-12-03T22:26:44.613Z,30.48
2022-12-03T22:29:11.129Z,30.98
2022-12-03T22:31:37.735Z,29.60
2022-12-03T22:34:04.523Z,29.60
2022-12-03T22:36:30.847Z,28.05
2022-12-03T22:38:57.058Z,30.00
2022-12-03T22:41:23.389Z,30.58
2022-12-03T22:43:49.759Z,28.85
2022-12-03T22:46:16.256Z,30.92
2022-12-03T22:48:43.386Z,30.40
2022-12-03T22:51:11.685Z,29.67
2022-12-03T22:53:38.003Z,30.15
2022-12-03T22:56:04.394Z,30.33
2022-12-03T22:58:31.647Z,31.00
2022-12-03T23:01:02.641Z,31.55
2022-12-03T23:03:29.612Z,30.30
2022-12-03T23:05:55.956Z,31.85
2022-12-03T23:08:22.362Z,31.55
2022-12-03T23:10:50.818Z,31.42
2022-12-03T23:13:17.541Z,32.10
2022-12-03T23:15:45.513Z,33.25
2022-12-03T23:18:11.827Z,34.25
2022-12-03T23:20:41.651Z,32.80
2022-12-03T23:23:07.959Z,33.70
2022-12-03T23:25:34.250Z,33.22
2022-12-03T23:28:00.484Z,31.77
2022-12-03T23:30:26.761Z,32.22
2022-12-03T23:32:53.029Z,32.50
2022-12-03T23:35:19.302Z,31.60
2022-12-03T23:37:45.516Z,33.53
2022-12-03T23:40:12.048Z,32.78
2022-12-03T23:42:38.292Z,34.25
2022-12-03T23:45:04.758Z,33.85
2022-12-03T23:47:31.063Z,32.50
2022-12-03T23:49:57.509Z,37.22
2022-12-03T23:52:24.382Z,33.75
2022-12-03T23:54:50.594Z,33.78
2022-12-03T23:57:18.189Z,34.40
2022-12-03T23:59:44.490Z,35.40
